createdAt,value
2023-05-23T00:01:02.550Z,1011.96
2023-05-23T00:06:01.694Z,1011.93
2023-05-23T00:11:02.822Z,1011.98
2023-05-23T00:16:03.816Z,1011.89
2023-05-23T00:21:04.887Z,1011.86
2023-05-23T00:26:06.103Z,1011.88
2023-05-23T00:31:08.224Z,1011.91
2023-05-23T00:36:07.223Z,1011.84
2023-05-23T00:41:08.257Z,1011.90
2023-05-23T00:46:09.342Z,1011.88
2023-05-23T00:51:12.357Z,1011.91
2023-05-23T00:56:11.439Z,1011.95
2023-05-23T01:01:12.467Z,1011.92
2023-05-23T01:06:13.524Z,1011.97
2023-05-23T01:11:14.543Z,1011.94
2023-05-23T01:16:15.603Z,1012.01
2023-05-23T01:21:16.622Z,1012.08
2023-05-23T01:26:17.660Z,1012.12
2023-05-23T01:31:18.723Z,1012.16
2023-05-23T01:36:20.735Z,1012.16
2023-05-23T01:41:20.780Z,1012.10
2023-05-23T01:46:19.885Z,1012.11
2023-05-23T01:51:21.911Z,1012.16
2023-05-23T01:56:20.975Z,1012.11
2023-05-23T02:01:22.057Z,1012.17
2023-05-23T02:06:25.150Z,1012.20
2023-05-23T02:11:24.181Z,1012.19
2023-05-23T02:16:25.256Z,1012.15
2023-05-23T02:21:26.261Z,1012.19
2023-05-23T02:26:26.289Z,1012.14
2023-05-23T02:31:28.403Z,1012.16
2023-05-23T02:36:27.401Z,1012.28
2023-05-23T02:41:28.456Z,1012.33
2023-05-23T02:46:30.546Z,1012.39
2023-05-23T02:51:29.567Z,1012.38
2023-05-23T02:56:31.631Z,1012.44
2023-05-23T03:01:31.689Z,1012.49
2023-05-23T03:06:31.048Z,1012.51
2023-05-23T03:11:34.168Z,1012.57
2023-05-23T03:16:35.280Z,1012.55
2023-05-23T03:21:34.344Z,1012.60
2023-05-23T03:26:35.420Z,1012.56
2023-05-23T03:31:38.532Z,1012.60
2023-05-23T03:36:39.730Z,1012.68
2023-05-23T03:41:40.801Z,1012.70
2023-05-23T03:46:42.029Z,1012.71
2023-05-23T03:51:41.067Z,1012.66
2023-05-23T03:56:43.151Z,1012.70
2023-05-23T04:01:42.210Z,1012.72
2023-05-23T04:06:44.292Z,1012.79
2023-05-23T04:11:44.418Z,1012.75
2023-05-23T04:16:43.531Z,1012.80
2023-05-23T04:21:44.533Z,1012.82
2023-05-23T04:26:46.573Z,1012.79
2023-05-23T04:31:45.651Z,1012.87
2023-05-23T04:36:46.648Z,1012.88
2023-05-23T04:41:47.674Z,1012.95
2023-05-23T04:46:50.773Z,1013.00
2023-05-23T04:51:49.812Z,1013.05
2023-05-23T04:56:50.865Z,1013.00
2023-05-23T05:01:51.911Z,1013.08
2023-05-23T05:06:52.947Z,1013.04
2023-05-23T05:11:54.980Z,1013.06
2023-05-23T05:16:54.078Z,1013.10
2023-05-23T05:21:55.077Z,1013.06
2023-05-23T05:26:57.088Z,1013.03
2023-05-23T05:31:57.134Z,1013.11
2023-05-23T05:36:56.199Z,1013.16
2023-05-23T05:41:57.249Z,1013.24
2023-05-23T05:46:58.285Z,1013.28
2023-05-23T05:51:59.343Z,1013.28
2023-05-23T05:57:03.397Z,1013.21
2023-05-23T06:02:00.437Z,1013.21
2023-05-23T06:07:01.445Z,1013.22
2023-05-23T06:12:03.520Z,1013.20
2023-05-23T06:17:04.582Z,1013.25
2023-05-23T06:22:03.600Z,1013.25
2023-05-23T06:27:04.640Z,1013.32
2023-05-23T06:32:05.724Z,1013.30
2023-05-23T06:37:06.706Z,1013.37
2023-05-23T06:42:07.818Z,1013.38
2023-05-23T06:47:08.825Z,1013.33
2023-05-23T06:52:09.871Z,1013.32
2023-05-23T06:57:10.896Z,1013.37
2023-05-23T07:02:11.921Z,1013.40
2023-05-23T07:07:11.967Z,1013.38
2023-05-23T07:12:14.011Z,1013.41
2023-05-23T07:17:14.171Z,1013.48
2023-05-23T07:22:13.239Z,1013.47
2023-05-23T07:27:14.294Z,1013.44
2023-05-23T07:32:15.329Z,1013.45
2023-05-23T07:37:16.384Z,1013.47
2023-05-23T07:42:18.429Z,1013.51
2023-05-23T07:47:18.454Z,1013.56
2023-05-23T07:52:18.493Z,1013.51
2023-05-23T07:57:17.545Z,1013.48
2023-05-23T08:02:18.624Z,1013.50
2023-05-23T08:07:19.763Z,1013.54
2023-05-23T08:12:20.779Z,1013.59
2023-05-23T08:17:20.967Z,1013.64
2023-05-23T08:22:22.030Z,1013.61
2023-05-23T08:27:23.095Z,1013.58
2023-05-23T08:32:24.213Z,1013.67
2023-05-23T08:37:25.250Z,1013.80
2023-05-23T08:42:27.323Z,1013.81
2023-05-23T08:47:26.387Z,1013.82
2023-05-23T08:52:27.391Z,1013.88
2023-05-23T08:57:28.443Z,1013.85
2023-05-23T09:02:30.548Z,1013.84
2023-05-23T09:07:30.585Z,1013.74
2023-05-23T09:12:29.696Z,1013.87
2023-05-23T09:17:31.784Z,1013.87
2023-05-23T09:22:30.786Z,1013.96
2023-05-23T09:27:31.851Z,1013.97
2023-05-23T09:32:33.092Z,1014.05
2023-05-23T09:37:35.099Z,1014.02
2023-05-23T09:42:35.151Z,1014.07
2023-05-23T09:47:34.205Z,1014.05
2023-05-23T09:52:36.727Z,1014.03
2023-05-23T09:57:36.088Z,1013.93
2023-05-23T10:02:38.186Z,1014.00
2023-05-23T10:07:38.205Z,1013.99
2023-05-23T10:12:38.255Z,1013.91
2023-05-23T10:17:38.371Z,1013.78
2023-05-23T10:22:37.409Z,1013.85
2023-05-23T10:27:39.490Z,1013.86
2023-05-23T10:32:38.589Z,1013.80
2023-05-23T10:37:40.597Z,1013.71
2023-05-23T10:42:39.662Z,1013.80
2023-05-23T10:47:41.731Z,1013.71
2023-05-23T10:52:40.704Z,1013.70
2023-05-23T10:57:41.804Z,1013.67
2023-05-23T11:02:42.928Z,1013.63
2023-05-23T11:07:47.952Z,1013.59
2023-05-23T11:12:45.021Z,1013.54
2023-05-23T11:17:46.052Z,1013.44
2023-05-23T11:22:49.072Z,1013.43
2023-05-23T11:27:48.116Z,1013.36
2023-05-23T11:32:51.189Z,1013.31
2023-05-23T11:37:51.219Z,1013.30
2023-05-23T11:42:51.645Z,1013.31
2023-05-23T11:47:49.882Z,1013.25
2023-05-23T11:52:49.925Z,1013.12
2023-05-23T11:57:54.866Z,1013.00
2023-05-23T12:02:51.994Z,1013.01
2023-05-23T12:07:53.073Z,1012.96
2023-05-23T12:12:54.164Z,1012.96
2023-05-23T12:17:55.303Z,1012.91
2023-05-23T12:22:57.341Z,1012.84
2023-05-23T12:27:57.378Z,1012.81
2023-05-23T12:32:57.450Z,1012.88
2023-05-23T12:37:56.486Z,1012.80
2023-05-23T12:42:57.597Z,1012.68
2023-05-23T12:47:59.750Z,1012.68
2023-05-23T12:52:59.807Z,1012.75
2023-05-23T12:57:57.840Z,1012.64
2023-05-23T13:02:58.924Z,1012.58
2023-05-23T13:07:59.943Z,1012.55
2023-05-23T13:13:03.202Z,1012.56
2023-05-23T13:18:02.354Z,1012.61
2023-05-23T13:23:03.381Z,1012.67
2023-05-23T13:28:04.422Z,1012.66
2023-05-23T13:33:06.581Z,1012.63
2023-05-23T13:38:05.632Z,1012.61
2023-05-23T13:43:06.656Z,1012.63
2023-05-23T13:48:08.752Z,1012.64
2023-05-23T13:53:07.763Z,1012.81
2023-05-23T13:58:08.772Z,1012.85
2023-05-23T14:03:10.886Z,1012.85
2023-05-23T14:08:11.926Z,1012.81
2023-05-23T14:13:11.969Z,1012.82
2023-05-23T14:18:11.023Z,1012.88
2023-05-23T14:23:12.037Z,1012.97
2023-05-23T14:28:13.069Z,1013.06
2023-05-23T14:33:14.147Z,1013.04
2023-05-23T14:38:15.334Z,1012.99
2023-05-23T14:43:17.381Z,1013.05
2023-05-23T14:48:17.469Z,1012.99
2023-05-23T14:53:17.499Z,1013.02
2023-05-23T14:58:17.543Z,1012.99
2023-05-23T15:03:16.633Z,1013.02
2023-05-23T15:08:17.658Z,1012.99
2023-05-23T15:13:18.704Z,1013.01
2023-05-23T15:18:35.612Z,1013.01
2023-05-23T15:23:21.726Z,1012.97
2023-05-23T15:28:21.814Z,1012.87
2023-05-23T15:33:22.038Z,1012.83
2023-05-23T15:38:21.053Z,1012.87
2023-05-23T15:43:23.074Z,1012.86
2023-05-23T15:48:23.102Z,1012.96
2023-05-23T15:53:23.171Z,1013.05
2023-05-23T15:58:23.222Z,1013.14
2023-05-23T16:03:23.326Z,1013.23
2023-05-23T16:08:22.383Z,1013.17
2023-05-23T16:13:24.453Z,1013.23
2023-05-23T16:18:24.439Z,1013.17
2023-05-23T16:23:24.498Z,1013.10
2023-05-23T16:28:24.544Z,1013.11
2023-05-23T16:33:23.581Z,1013.10
2023-05-23T16:38:25.621Z,1013.09
2023-05-23T16:43:25.710Z,1013.09
2023-05-23T16:48:24.766Z,1013.15
2023-05-23T16:53:26.805Z,1013.20
2023-05-23T16:58:26.878Z,1013.24
2023-05-23T17:03:26.082Z,1013.20
2023-05-23T17:08:27.166Z,1013.20
2023-05-23T17:13:28.341Z,1013.12
2023-05-23T17:18:29.525Z,1013.19
2023-05-23T17:23:30.810Z,1013.18
2023-05-23T17:28:33.246Z,1013.22
2023-05-23T17:33:34.804Z,1013.28
2023-05-23T17:38:33.376Z,1013.22
2023-05-23T17:43:33.919Z,1013.19
2023-05-23T17:48:46.293Z,1013.16
2023-05-23T17:53:34.753Z,1013.22
2023-05-23T17:58:34.331Z,1013.30
2023-05-23T18:03:34.918Z,1013.29
2023-05-23T18:08:35.511Z,1013.38
2023-05-23T18:13:35.993Z,1013.38
2023-05-23T18:18:36.550Z,1013.46
2023-05-23T18:23:36.652Z,1013.50
2023-05-23T18:28:38.272Z,1013.50
2023-05-23T18:33:35.975Z,1013.45
2023-05-23T18:38:36.642Z,1013.54
2023-05-23T18:43:37.204Z,1013.68
2023-05-23T18:48:36.785Z,1013.70
2023-05-23T18:53:36.385Z,1013.76
2023-05-23T18:58:35.961Z,1013.91
2023-05-23T19:03:37.624Z,1013.91
2023-05-23T19:08:35.254Z,1013.95
2023-05-23T19:14:19.609Z,1014.02
2023-05-23T19:18:35.003Z,1014.08
2023-05-23T19:23:36.482Z,1014.09
2023-05-23T19:28:35.903Z,1014.09
2023-05-23T19:33:37.357Z,1014.11
2023-05-23T19:38:40.761Z,1014.16
2023-05-23T19:43:41.206Z,1014.26
2023-05-23T19:48:41.648Z,1014.24
2023-05-23T19:53:41.997Z,1014.26
2023-05-23T19:58:42.468Z,1014.22
2023-05-23T20:03:40.947Z,1014.28
2023-05-23T20:08:42.154Z,1014.26
2023-05-23T20:13:43.297Z,1014.37
2023-05-23T20:18:44.729Z,1014.46
2023-05-23T20:23:45.300Z,1014.52
2023-05-23T20:28:45.819Z,1014.58
2023-05-23T20:33:46.346Z,1014.62
2023-05-23T20:38:45.784Z,1014.60
2023-05-23T20:43:48.060Z,1014.61
2023-05-23T20:48:47.253Z,1014.67
2023-05-23T20:53:50.419Z,1014.73
2023-05-23T20:58:50.480Z,1014.76
2023-05-23T21:03:50.536Z,1014.79
2023-05-23T21:08:50.619Z,1014.74
2023-05-23T21:13:49.625Z,1014.70
2023-05-23T21:18:51.701Z,1014.72
2023-05-23T21:23:50.716Z,1014.71
2023-05-23T21:28:51.815Z,1014.70
2023-05-23T21:33:53.871Z,1014.69
2023-05-23T21:38:52.914Z,1014.68
2023-05-23T21:43:53.999Z,1014.75
2023-05-23T21:48:57.019Z,1014.74
2023-05-23T21:53:56.059Z,1014.76
2023-05-23T21:58:57.112Z,1014.81
2023-05-23T22:03:58.173Z,1014.79
2023-05-23T22:08:59.199Z,1014.82
2023-05-23T22:14:00.232Z,1014.86
2023-05-23T22:19:01.284Z,1014.85
2023-05-23T22:24:03.314Z,1014.81
2023-05-23T22:29:02.356Z,1014.85
2023-05-23T22:34:03.402Z,1014.84
2023-05-23T22:39:04.461Z,1014.79
2023-05-23T22:44:05.532Z,1014.79
2023-05-23T22:49:06.582Z,1014.81
2023-05-23T22:54:08.665Z,1014.72
2023-05-23T22:59:07.689Z,1014.65
2023-05-23T23:04:10.718Z,1014.67
2023-05-23T23:09:10.740Z,1014.65
2023-05-23T23:14:09.793Z,1014.60
2023-05-23T23:19:10.843Z,1014.63
2023-05-23T23:24:11.889Z,1014.61
2023-05-23T23:29:13.063Z,1014.61
2023-05-23T23:34:16.109Z,1014.55
2023-05-23T23:39:15.145Z,1014.52
2023-05-23T23:44:16.159Z,1014.51
2023-05-23T23:49:18.213Z,1014.49
2023-05-23T23:54:18.261Z,1014.42
2023-05-23T23:59:17.336Z,1014.43
